sensor_id;sensor_type;location;lat;lon;timestamp;P1;durP1;ratioP1;P2;durP2;ratioP2
13238;SDS011;6686;51.292;4.166;2022-10-17T00:02:10;9.93;;;7.40;;
13238;SDS011;6686;51.292;4.166;2022-10-17T00:04:56;8.20;;;6.30;;
13238;SDS011;6686;51.292;4.166;2022-10-17T00:07:42;8.93;;;6.63;;
13238;SDS011;6686;51.292;4.166;2022-10-17T00:10:28;9.13;;;7.57;;
13238;SDS011;6686;51.292;4.166;2022-10-17T00:13:14;9.02;;;8.13;;
13238;SDS011;6686;51.292;4.166;2022-10-17T00:16:00;9.20;;;8.20;;
13238;SDS011;6686;51.292;4.166;2022-10-17T00:18:46;8.27;;;7.47;;
13238;SDS011;6686;51.292;4.166;2022-10-17T00:21:32;10.30;;;7.60;;
13238;SDS011;6686;51.292;4.166;2022-10-17T00:24:19;8.67;;;7.80;;
13238;SDS011;6686;51.292;4.166;2022-10-17T00:27:05;8.77;;;7.87;;
13238;SDS011;6686;51.292;4.166;2022-10-17T00:29:51;10.00;;;8.10;;
13238;SDS011;6686;51.292;4.166;2022-10-17T00:32:37;8.23;;;7.43;;
13238;SDS011;6686;51.292;4.166;2022-10-17T00:35:23;10.80;;;7.87;;
13238;SDS011;6686;51.292;4.166;2022-10-17T00:38:09;8.63;;;7.73;;
13238;SDS011;6686;51.292;4.166;2022-10-17T00:40:55;9.23;;;7.70;;
13238;SDS011;6686;51.292;4.166;2022-10-17T00:43:51;11.20;;;9.20;;
13238;SDS011;6686;51.292;4.166;2022-10-17T00:46:33;9.13;;;8.20;;
13238;SDS011;6686;51.292;4.166;2022-10-17T00:49:18;8.50;;;7.67;;
13238;SDS011;6686;51.292;4.166;2022-10-17T00:52:05;9.33;;;7.40;;
13238;SDS011;6686;51.292;4.166;2022-10-17T00:54:54;10.50;;;7.57;;
13238;SDS011;6686;51.292;4.166;2022-10-17T00:57:39;9.90;;;7.43;;
13238;SDS011;6686;51.292;4.166;2022-10-17T01:00:24;7.03;;;6.40;;
13238;SDS011;6686;51.292;4.166;2022-10-17T01:03:14;9.13;;;6.90;;
13238;SDS011;6686;51.292;4.166;2022-10-17T01:05:57;8.48;;;7.57;;
13238;SDS011;6686;51.292;4.166;2022-10-17T01:08:42;8.43;;;7.00;;
13238;SDS011;6686;51.292;4.166;2022-10-17T01:18:05;7.33;;;6.63;;
13238;SDS011;6686;51.292;4.166;2022-10-17T01:24:16;8.40;;;6.47;;
13238;SDS011;6686;51.292;4.166;2022-10-17T01:27:22;7.40;;;6.57;;
13238;SDS011;6686;51.292;4.166;2022-10-17T01:30:09;8.23;;;7.18;;
13238;SDS011;6686;51.292;4.166;2022-10-17T01:35:42;7.30;;;6.57;;
13238;SDS011;6686;51.292;4.166;2022-10-17T01:38:31;9.70;;;6.40;;
13238;SDS011;6686;51.292;4.166;2022-10-17T01:44:17;8.80;;;7.30;;
13238;SDS011;6686;51.292;4.166;2022-10-17T01:47:07;7.23;;;6.53;;
13238;SDS011;6686;51.292;4.166;2022-10-17T01:49:52;9.73;;;6.90;;
13238;SDS011;6686;51.292;4.166;2022-10-17T01:52:40;7.83;;;6.10;;
13238;SDS011;6686;51.292;4.166;2022-10-17T01:55:28;9.77;;;6.83;;
13238;SDS011;6686;51.292;4.166;2022-10-17T01:58:20;8.03;;;6.57;;
13238;SDS011;6686;51.292;4.166;2022-10-17T02:01:05;8.53;;;6.67;;
13238;SDS011;6686;51.292;4.166;2022-10-17T02:03:50;8.03;;;6.73;;
13238;SDS011;6686;51.292;4.166;2022-10-17T02:06:36;7.80;;;6.57;;
13238;SDS011;6686;51.292;4.166;2022-10-17T02:12:29;10.13;;;8.02;;
13238;SDS011;6686;51.292;4.166;2022-10-17T02:15:23;8.03;;;6.87;;
13238;SDS011;6686;51.292;4.166;2022-10-17T02:27:22;10.43;;;7.13;;
13238;SDS011;6686;51.292;4.166;2022-10-17T02:33:16;10.33;;;7.13;;
13238;SDS011;6686;51.292;4.166;2022-10-17T02:36:03;9.63;;;7.20;;
13238;SDS011;6686;51.292;4.166;2022-10-17T02:38:47;8.27;;;6.73;;
13238;SDS011;6686;51.292;4.166;2022-10-17T02:41:34;8.13;;;7.23;;
13238;SDS011;6686;51.292;4.166;2022-10-17T02:44:19;11.50;;;7.67;;
13238;SDS011;6686;51.292;4.166;2022-10-17T02:49:57;10.70;;;7.70;;
13238;SDS011;6686;51.292;4.166;2022-10-17T02:52:57;9.60;;;7.73;;
13238;SDS011;6686;51.292;4.166;2022-10-17T02:55:47;10.52;;;8.23;;
13238;SDS011;6686;51.292;4.166;2022-10-17T02:58:31;9.70;;;7.83;;
13238;SDS011;6686;51.292;4.166;2022-10-17T03:01:17;10.40;;;7.10;;
13238;SDS011;6686;51.292;4.166;2022-10-17T03:04:05;9.47;;;7.70;;
13238;SDS011;6686;51.292;4.166;2022-10-17T03:06:54;9.32;;;7.90;;
13238;SDS011;6686;51.292;4.166;2022-10-17T03:09:40;9.30;;;7.63;;
13238;SDS011;6686;51.292;4.166;2022-10-17T03:12:27;10.97;;;7.03;;
13238;SDS011;6686;51.292;4.166;2022-10-17T03:15:13;8.40;;;6.70;;
13238;SDS011;6686;51.292;4.166;2022-10-17T03:17:59;13.07;;;7.40;;
13238;SDS011;6686;51.292;4.166;2022-10-17T03:20:45;9.60;;;7.30;;
13238;SDS011;6686;51.292;4.166;2022-10-17T03:23:31;9.97;;;8.40;;
13238;SDS011;6686;51.292;4.166;2022-10-17T03:26:19;8.23;;;7.33;;
13238;SDS011;6686;51.292;4.166;2022-10-17T03:29:05;11.20;;;7.37;;
13238;SDS011;6686;51.292;4.166;2022-10-17T03:31:50;8.77;;;6.93;;
13238;SDS011;6686;51.292;4.166;2022-10-17T03:34:37;8.33;;;7.53;;
13238;SDS011;6686;51.292;4.166;2022-10-17T03:37:22;8.30;;;7.37;;
13238;SDS011;6686;51.292;4.166;2022-10-17T03:40:08;9.13;;;8.17;;
13238;SDS011;6686;51.292;4.166;2022-10-17T03:42:54;9.00;;;7.70;;
13238;SDS011;6686;51.292;4.166;2022-10-17T03:45:40;12.73;;;7.67;;
13238;SDS011;6686;51.292;4.166;2022-10-17T03:48:27;7.93;;;7.13;;
13238;SDS011;6686;51.292;4.166;2022-10-17T03:51:12;9.93;;;8.83;;
13238;SDS011;6686;51.292;4.166;2022-10-17T03:53:58;9.77;;;7.23;;
13238;SDS011;6686;51.292;4.166;2022-10-17T03:56:46;8.40;;;7.20;;
13238;SDS011;6686;51.292;4.166;2022-10-17T03:59:32;8.90;;;7.77;;
13238;SDS011;6686;51.292;4.166;2022-10-17T04:02:18;9.07;;;7.77;;
13238;SDS011;6686;51.292;4.166;2022-10-17T04:05:04;9.97;;;7.40;;
13238;SDS011;6686;51.292;4.166;2022-10-17T04:07:50;15.00;;;7.47;;
13238;SDS011;6686;51.292;4.166;2022-10-17T04:10:36;9.17;;;8.00;;
13238;SDS011;6686;51.292;4.166;2022-10-17T04:13:22;11.30;;;7.97;;
13238;SDS011;6686;51.292;4.166;2022-10-17T04:16:10;8.43;;;7.63;;
13238;SDS011;6686;51.292;4.166;2022-10-17T04:18:54;11.60;;;7.63;;
13238;SDS011;6686;51.292;4.166;2022-10-17T04:21:40;12.13;;;7.93;;
13238;SDS011;6686;51.292;4.166;2022-10-17T04:24:25;8.40;;;7.33;;
13238;SDS011;6686;51.292;4.166;2022-10-17T04:27:12;8.17;;;6.10;;
13238;SDS011;6686;51.292;4.166;2022-10-17T04:29:58;7.37;;;6.67;;
13238;SDS011;6686;51.292;4.166;2022-10-17T04:32:44;7.63;;;6.93;;
13238;SDS011;6686;51.292;4.166;2022-10-17T04:35:30;7.97;;;7.17;;
13238;SDS011;6686;51.292;4.166;2022-10-17T04:38:17;10.77;;;7.80;;
13238;SDS011;6686;51.292;4.166;2022-10-17T04:41:03;10.37;;;7.03;;
13238;SDS011;6686;51.292;4.166;2022-10-17T04:43:49;11.50;;;7.50;;
13238;SDS011;6686;51.292;4.166;2022-10-17T04:46:34;9.07;;;7.27;;
13238;SDS011;6686;51.292;4.166;2022-10-17T04:49:20;9.00;;;8.02;;
13238;SDS011;6686;51.292;4.166;2022-10-17T04:52:07;9.32;;;7.70;;
13238;SDS011;6686;51.292;4.166;2022-10-17T04:54:53;8.00;;;7.23;;
13238;SDS011;6686;51.292;4.166;2022-10-17T04:57:39;8.00;;;6.87;;
13238;SDS011;6686;51.292;4.166;2022-10-17T05:00:25;9.57;;;6.90;;
13238;SDS011;6686;51.292;4.166;2022-10-17T05:03:11;8.13;;;7.20;;
13238;SDS011;6686;51.292;4.166;2022-10-17T05:05:56;9.97;;;6.83;;
13238;SDS011;6686;51.292;4.166;2022-10-17T05:08:43;10.27;;;6.57;;
13238;SDS011;6686;51.292;4.166;2022-10-17T05:11:28;7.77;;;6.63;;
13238;SDS011;6686;51.292;4.166;2022-10-17T05:14:14;9.68;;;7.65;;
13238;SDS011;6686;51.292;4.166;2022-10-17T05:17:00;9.32;;;7.85;;
13238;SDS011;6686;51.292;4.166;2022-10-17T05:19:46;8.45;;;7.10;;
13238;SDS011;6686;51.292;4.166;2022-10-17T05:22:32;6.90;;;6.30;;
13238;SDS011;6686;51.292;4.166;2022-10-17T05:25:18;8.77;;;7.00;;
13238;SDS011;6686;51.292;4.166;2022-10-17T05:28:04;7.10;;;6.37;;
13238;SDS011;6686;51.292;4.166;2022-10-17T05:30:51;9.50;;;6.50;;
13238;SDS011;6686;51.292;4.166;2022-10-17T05:33:37;9.50;;;6.10;;
13238;SDS011;6686;51.292;4.166;2022-10-17T05:36:23;9.43;;;6.80;;
13238;SDS011;6686;51.292;4.166;2022-10-17T05:39:10;7.70;;;6.23;;
13238;SDS011;6686;51.292;4.166;2022-10-17T05:41:54;8.20;;;6.83;;
13238;SDS011;6686;51.292;4.166;2022-10-17T05:44:40;9.03;;;6.07;;
13238;SDS011;6686;51.292;4.166;2022-10-17T05:47:26;10.90;;;6.47;;
13238;SDS011;6686;51.292;4.166;2022-10-17T05:50:12;10.37;;;6.63;;
13238;SDS011;6686;51.292;4.166;2022-10-17T05:52:58;8.47;;;6.53;;
13238;SDS011;6686;51.292;4.166;2022-10-17T05:55:45;7.17;;;6.47;;
13238;SDS011;6686;51.292;4.166;2022-10-17T05:58:30;9.60;;;6.83;;
13238;SDS011;6686;51.292;4.166;2022-10-17T06:01:16;8.63;;;6.70;;
13238;SDS011;6686;51.292;4.166;2022-10-17T06:04:02;7.17;;;6.47;;
13238;SDS011;6686;51.292;4.166;2022-10-17T06:06:48;8.67;;;7.00;;
13238;SDS011;6686;51.292;4.166;2022-10-17T06:09:34;8.80;;;6.50;;
13238;SDS011;6686;51.292;4.166;2022-10-17T06:12:19;8.85;;;7.57;;
13238;SDS011;6686;51.292;4.166;2022-10-17T06:15:06;7.07;;;6.43;;
13238;SDS011;6686;51.292;4.166;2022-10-17T06:17:52;7.10;;;6.20;;
13238;SDS011;6686;51.292;4.166;2022-10-17T06:20:37;9.50;;;6.53;;
13238;SDS011;6686;51.292;4.166;2022-10-17T06:23:23;8.60;;;6.40;;
13238;SDS011;6686;51.292;4.166;2022-10-17T06:26:09;7.80;;;6.60;;
13238;SDS011;6686;51.292;4.166;2022-10-17T06:28:54;8.07;;;6.93;;
13238;SDS011;6686;51.292;4.166;2022-10-17T06:31:40;9.03;;;7.47;;
13238;SDS011;6686;51.292;4.166;2022-10-17T06:34:26;7.13;;;6.00;;
13238;SDS011;6686;51.292;4.166;2022-10-17T06:37:12;7.23;;;6.53;;
13238;SDS011;6686;51.292;4.166;2022-10-17T06:39:58;10.33;;;7.20;;
13238;SDS011;6686;51.292;4.166;2022-10-17T06:42:44;7.73;;;6.40;;
13238;SDS011;6686;51.292;4.166;2022-10-17T06:45:31;12.68;;;8.60;;
13238;SDS011;6686;51.292;4.166;2022-10-17T06:48:17;12.23;;;10.67;;
13238;SDS011;6686;51.292;4.166;2022-10-17T06:51:03;14.43;;;12.97;;
13238;SDS011;6686;51.292;4.166;2022-10-17T06:53:48;10.80;;;9.70;;
13238;SDS011;6686;51.292;4.166;2022-10-17T06:56:34;13.30;;;7.80;;
13238;SDS011;6686;51.292;4.166;2022-10-17T06:59:20;10.90;;;7.23;;
13238;SDS011;6686;51.292;4.166;2022-10-17T07:02:05;11.17;;;8.00;;
13238;SDS011;6686;51.292;4.166;2022-10-17T07:04:52;9.17;;;7.77;;
13238;SDS011;6686;51.292;4.166;2022-10-17T07:07:37;11.50;;;7.43;;
13238;SDS011;6686;51.292;4.166;2022-10-17T07:10:25;10.00;;;8.97;;
13238;SDS011;6686;51.292;4.166;2022-10-17T07:13:10;9.57;;;8.67;;
13238;SDS011;6686;51.292;4.166;2022-10-17T07:15:57;10.37;;;8.53;;
13238;SDS011;6686;51.292;4.166;2022-10-17T07:18:41;12.77;;;8.77;;
13238;SDS011;6686;51.292;4.166;2022-10-17T07:21:27;11.57;;;8.20;;
13238;SDS011;6686;51.292;4.166;2022-10-17T07:24:13;9.77;;;8.80;;
13238;SDS011;6686;51.292;4.166;2022-10-17T07:26:59;11.90;;;8.57;;
13238;SDS011;6686;51.292;4.166;2022-10-17T07:29:45;10.87;;;8.50;;
13238;SDS011;6686;51.292;4.166;2022-10-17T07:32:30;15.23;;;9.17;;
13238;SDS011;6686;51.292;4.166;2022-10-17T07:35:16;14.90;;;10.47;;
13238;SDS011;6686;51.292;4.166;2022-10-17T07:38:02;13.03;;;10.30;;
13238;SDS011;6686;51.292;4.166;2022-10-17T07:40:55;10.77;;;9.60;;
13238;SDS011;6686;51.292;4.166;2022-10-17T07:43:41;11.90;;;9.47;;
13238;SDS011;6686;51.292;4.166;2022-10-17T07:46:27;10.60;;;9.47;;
13238;SDS011;6686;51.292;4.166;2022-10-17T07:49:12;12.17;;;9.13;;
13238;SDS011;6686;51.292;4.166;2022-10-17T07:51:58;12.13;;;9.23;;
13238;SDS011;6686;51.292;4.166;2022-10-17T07:54:44;11.07;;;9.00;;
13238;SDS011;6686;51.292;4.166;2022-10-17T07:57:30;10.97;;;8.63;;
13238;SDS011;6686;51.292;4.166;2022-10-17T08:00:15;10.23;;;9.10;;
13238;SDS011;6686;51.292;4.166;2022-10-17T08:03:01;10.77;;;8.80;;
13238;SDS011;6686;51.292;4.166;2022-10-17T08:05:47;9.57;;;7.80;;
13238;SDS011;6686;51.292;4.166;2022-10-17T08:08:32;9.77;;;8.57;;
13238;SDS011;6686;51.292;4.166;2022-10-17T08:11:18;11.43;;;8.93;;
13238;SDS011;6686;51.292;4.166;2022-10-17T08:14:04;11.07;;;9.98;;
13238;SDS011;6686;51.292;4.166;2022-10-17T08:16:50;9.70;;;8.73;;
13238;SDS011;6686;51.292;4.166;2022-10-17T08:19:39;12.13;;;8.10;;
13238;SDS011;6686;51.292;4.166;2022-10-17T08:22:25;12.03;;;8.50;;
13238;SDS011;6686;51.292;4.166;2022-10-17T08:25:11;9.87;;;8.83;;
13238;SDS011;6686;51.292;4.166;2022-10-17T08:27:57;11.23;;;8.00;;
13238;SDS011;6686;51.292;4.166;2022-10-17T08:30:43;9.83;;;8.10;;
13238;SDS011;6686;51.292;4.166;2022-10-17T08:33:29;10.03;;;7.60;;
13238;SDS011;6686;51.292;4.166;2022-10-17T08:36:15;9.20;;;7.33;;
13238;SDS011;6686;51.292;4.166;2022-10-17T08:39:03;9.37;;;7.20;;
13238;SDS011;6686;51.292;4.166;2022-10-17T08:42:00;7.83;;;6.67;;
13238;SDS011;6686;51.292;4.166;2022-10-17T08:47:45;10.17;;;7.30;;
13238;SDS011;6686;51.292;4.166;2022-10-17T08:53:30;7.13;;;6.40;;
13238;SDS011;6686;51.292;4.166;2022-10-17T08:56:35;8.33;;;6.77;;
13238;SDS011;6686;51.292;4.166;2022-10-17T08:59:25;9.70;;;6.60;;
13238;SDS011;6686;51.292;4.166;2022-10-17T09:05:40;9.63;;;6.90;;
13238;SDS011;6686;51.292;4.166;2022-10-17T09:08:28;7.87;;;6.33;;
13238;SDS011;6686;51.292;4.166;2022-10-17T09:21:16;20.80;;;12.17;;
13238;SDS011;6686;51.292;4.166;2022-10-17T09:23:24;9.43;;;8.40;;
13238;SDS011;6686;51.292;4.166;2022-10-17T09:26:09;8.87;;;7.63;;
13238;SDS011;6686;51.292;4.166;2022-10-17T09:28:55;9.70;;;7.20;;
13238;SDS011;6686;51.292;4.166;2022-10-17T09:31:42;8.57;;;7.47;;
13238;SDS011;6686;51.292;4.166;2022-10-17T09:34:28;7.93;;;6.93;;
13238;SDS011;6686;51.292;4.166;2022-10-17T09:37:14;9.27;;;7.55;;
13238;SDS011;6686;51.292;4.166;2022-10-17T09:39:59;8.87;;;7.03;;
13238;SDS011;6686;51.292;4.166;2022-10-17T09:42:45;7.57;;;6.17;;
13238;SDS011;6686;51.292;4.166;2022-10-17T09:45:31;7.67;;;6.47;;
13238;SDS011;6686;51.292;4.166;2022-10-17T09:48:39;8.90;;;5.87;;
13238;SDS011;6686;51.292;4.166;2022-10-17T09:54:18;8.73;;;6.33;;
13238;SDS011;6686;51.292;4.166;2022-10-17T09:57:13;7.27;;;5.63;;
13238;SDS011;6686;51.292;4.166;2022-10-17T09:59:58;6.30;;;5.67;;
13238;SDS011;6686;51.292;4.166;2022-10-17T10:02:44;7.80;;;6.13;;
13238;SDS011;6686;51.292;4.166;2022-10-17T10:05:29;7.00;;;6.27;;
13238;SDS011;6686;51.292;4.166;2022-10-17T10:08:16;12.40;;;6.17;;
13238;SDS011;6686;51.292;4.166;2022-10-17T10:11:03;8.70;;;5.93;;
13238;SDS011;6686;51.292;4.166;2022-10-17T10:13:48;6.97;;;6.00;;
13238;SDS011;6686;51.292;4.166;2022-10-17T10:16:33;7.57;;;6.07;;
13238;SDS011;6686;51.292;4.166;2022-10-17T10:19:27;6.73;;;5.33;;
13238;SDS011;6686;51.292;4.166;2022-10-17T10:22:18;7.23;;;6.07;;
13238;SDS011;6686;51.292;4.166;2022-10-17T10:25:07;7.77;;;5.90;;
13238;SDS011;6686;51.292;4.166;2022-10-17T10:27:53;6.17;;;5.47;;
13238;SDS011;6686;51.292;4.166;2022-10-17T10:30:38;7.60;;;5.30;;
13238;SDS011;6686;51.292;4.166;2022-10-17T10:33:25;6.00;;;5.40;;
13238;SDS011;6686;51.292;4.166;2022-10-17T10:36:10;7.17;;;5.50;;
13238;SDS011;6686;51.292;4.166;2022-10-17T10:38:56;6.10;;;5.40;;
13238;SDS011;6686;51.292;4.166;2022-10-17T10:41:48;7.43;;;5.60;;
13238;SDS011;6686;51.292;4.166;2022-10-17T10:44:35;5.37;;;4.67;;
13238;SDS011;6686;51.292;4.166;2022-10-17T10:47:29;6.37;;;5.33;;
13238;SDS011;6686;51.292;4.166;2022-10-17T10:53:31;6.75;;;6.10;;
13238;SDS011;6686;51.292;4.166;2022-10-17T10:56:15;6.33;;;5.47;;
13238;SDS011;6686;51.292;4.166;2022-10-17T10:59:16;5.43;;;4.57;;
13238;SDS011;6686;51.292;4.166;2022-10-17T11:04:58;6.12;;;5.37;;
13238;SDS011;6686;51.292;4.166;2022-10-17T11:08:41;5.60;;;5.10;;
13238;SDS011;6686;51.292;4.166;2022-10-17T11:11:12;7.20;;;4.60;;
13238;SDS011;6686;51.292;4.166;2022-10-17T11:17:16;5.70;;;5.12;;
13238;SDS011;6686;51.292;4.166;2022-10-17T11:23:00;5.33;;;4.83;;
13238;SDS011;6686;51.292;4.166;2022-10-17T11:25:44;6.03;;;4.67;;
13238;SDS011;6686;51.292;4.166;2022-10-17T11:28:29;5.23;;;4.40;;
13238;SDS011;6686;51.292;4.166;2022-10-17T11:31:15;6.03;;;5.07;;
13238;SDS011;6686;51.292;4.166;2022-10-17T11:34:03;4.97;;;4.33;;
13238;SDS011;6686;51.292;4.166;2022-10-17T11:36:57;5.73;;;4.67;;
13238;SDS011;6686;51.292;4.166;2022-10-17T11:39:47;5.13;;;4.63;;
13238;SDS011;6686;51.292;4.166;2022-10-17T11:42:36;5.07;;;4.57;;
13238;SDS011;6686;51.292;4.166;2022-10-17T11:45:20;6.33;;;4.97;;
13238;SDS011;6686;51.292;4.166;2022-10-17T11:48:09;6.45;;;4.93;;
13238;SDS011;6686;51.292;4.166;2022-10-17T11:50:53;4.67;;;4.27;;
13238;SDS011;6686;51.292;4.166;2022-10-17T11:53:45;5.17;;;4.53;;
13238;SDS011;6686;51.292;4.166;2022-10-17T11:56:37;5.20;;;4.37;;
13238;SDS011;6686;51.292;4.166;2022-10-17T12:05:53;5.10;;;4.60;;
13238;SDS011;6686;51.292;4.166;2022-10-17T12:08:50;5.30;;;4.23;;
13238;SDS011;6686;51.292;4.166;2022-10-17T12:11:54;5.87;;;4.50;;
13238;SDS011;6686;51.292;4.166;2022-10-17T12:14:42;5.63;;;4.50;;
13238;SDS011;6686;51.292;4.166;2022-10-17T12:17:31;5.07;;;4.60;;
13238;SDS011;6686;51.292;4.166;2022-10-17T12:26:02;6.37;;;5.20;;
13238;SDS011;6686;51.292;4.166;2022-10-17T12:28:47;6.03;;;4.73;;
13238;SDS011;6686;51.292;4.166;2022-10-17T12:31:33;5.10;;;4.57;;
13238;SDS011;6686;51.292;4.166;2022-10-17T12:34:19;7.30;;;4.77;;
13238;SDS011;6686;51.292;4.166;2022-10-17T12:37:08;7.30;;;4.60;;
13238;SDS011;6686;51.292;4.166;2022-10-17T12:39:51;6.43;;;5.03;;
13238;SDS011;6686;51.292;4.166;2022-10-17T12:42:44;6.03;;;4.87;;
13238;SDS011;6686;51.292;4.166;2022-10-17T12:51:19;6.50;;;5.68;;
13238;SDS011;6686;51.292;4.166;2022-10-17T12:54:09;6.07;;;4.80;;
13238;SDS011;6686;51.292;4.166;2022-10-17T12:56:54;6.03;;;5.40;;
13238;SDS011;6686;51.292;4.166;2022-10-17T12:59:42;6.70;;;5.23;;
13238;SDS011;6686;51.292;4.166;2022-10-17T13:02:26;7.93;;;5.40;;
13238;SDS011;6686;51.292;4.166;2022-10-17T13:05:18;7.60;;;5.63;;
13238;SDS011;6686;51.292;4.166;2022-10-17T13:08:06;7.10;;;5.37;;
13238;SDS011;6686;51.292;4.166;2022-10-17T13:10:50;6.70;;;5.37;;
13238;SDS011;6686;51.292;4.166;2022-10-17T13:13:43;7.27;;;5.50;;
13238;SDS011;6686;51.292;4.166;2022-10-17T13:16:35;7.03;;;5.17;;
13238;SDS011;6686;51.292;4.166;2022-10-17T13:19:25;7.40;;;5.83;;
13238;SDS011;6686;51.292;4.166;2022-10-17T13:22:10;8.27;;;6.63;;
13238;SDS011;6686;51.292;4.166;2022-10-17T13:25:05;10.83;;;6.90;;
13238;SDS011;6686;51.292;4.166;2022-10-17T13:27:50;12.60;;;6.07;;
13238;SDS011;6686;51.292;4.166;2022-10-17T13:30:36;8.17;;;6.23;;
13238;SDS011;6686;51.292;4.166;2022-10-17T13:33:27;6.70;;;5.67;;
13238;SDS011;6686;51.292;4.166;2022-10-17T13:36:17;8.13;;;6.10;;
13238;SDS011;6686;51.292;4.166;2022-10-17T13:39:07;10.37;;;6.70;;
13238;SDS011;6686;51.292;4.166;2022-10-17T13:41:52;6.90;;;6.20;;
13238;SDS011;6686;51.292;4.166;2022-10-17T13:44:38;8.53;;;5.93;;
13238;SDS011;6686;51.292;4.166;2022-10-17T13:47:27;7.40;;;5.33;;
13238;SDS011;6686;51.292;4.166;2022-10-17T13:50:18;9.27;;;6.03;;
13238;SDS011;6686;51.292;4.166;2022-10-17T13:56:14;8.90;;;6.03;;
13238;SDS011;6686;51.292;4.166;2022-10-17T13:59:01;6.87;;;5.67;;
13238;SDS011;6686;51.292;4.166;2022-10-17T14:01:46;6.45;;;5.85;;
13238;SDS011;6686;51.292;4.166;2022-10-17T14:04:32;8.50;;;5.33;;
13238;SDS011;6686;51.292;4.166;2022-10-17T14:07:23;5.90;;;4.87;;
13238;SDS011;6686;51.292;4.166;2022-10-17T14:10:19;5.17;;;4.70;;
13238;SDS011;6686;51.292;4.166;2022-10-17T14:13:20;5.67;;;4.77;;
13238;SDS011;6686;51.292;4.166;2022-10-17T14:16:06;6.73;;;4.50;;
13238;SDS011;6686;51.292;4.166;2022-10-17T14:18:52;5.43;;;4.37;;
13238;SDS011;6686;51.292;4.166;2022-10-17T14:21:38;5.55;;;4.18;;
13238;SDS011;6686;51.292;4.166;2022-10-17T14:24:27;5.87;;;3.80;;
13238;SDS011;6686;51.292;4.166;2022-10-17T14:33:31;7.20;;;4.20;;
13238;SDS011;6686;51.292;4.166;2022-10-17T14:36:13;5.62;;;4.22;;
13238;SDS011;6686;51.292;4.166;2022-10-17T14:38:59;4.33;;;3.60;;
13238;SDS011;6686;51.292;4.166;2022-10-17T14:41:45;5.00;;;3.70;;
13238;SDS011;6686;51.292;4.166;2022-10-17T14:44:31;5.83;;;3.97;;
13238;SDS011;6686;51.292;4.166;2022-10-17T14:47:21;4.87;;;3.30;;
13238;SDS011;6686;51.292;4.166;2022-10-17T14:53:05;7.20;;;4.03;;
13238;SDS011;6686;51.292;4.166;2022-10-17T14:55:54;5.05;;;3.65;;
13238;SDS011;6686;51.292;4.166;2022-10-17T14:58:39;4.30;;;3.40;;
13238;SDS011;6686;51.292;4.166;2022-10-17T15:01:25;7.03;;;3.73;;
13238;SDS011;6686;51.292;4.166;2022-10-17T15:04:11;8.17;;;3.80;;
13238;SDS011;6686;51.292;4.166;2022-10-17T15:06:57;4.43;;;3.10;;
13238;SDS011;6686;51.292;4.166;2022-10-17T15:09:43;4.47;;;3.60;;
13238;SDS011;6686;51.292;4.166;2022-10-17T15:12:29;4.97;;;3.50;;
13238;SDS011;6686;51.292;4.166;2022-10-17T15:15:14;5.07;;;3.03;;
13238;SDS011;6686;51.292;4.166;2022-10-17T15:18:00;5.53;;;3.30;;
13238;SDS011;6686;51.292;4.166;2022-10-17T15:20:46;3.97;;;3.57;;
13238;SDS011;6686;51.292;4.166;2022-10-17T15:23:32;7.73;;;3.00;;
13238;SDS011;6686;51.292;4.166;2022-10-17T15:26:19;5.05;;;3.55;;
13238;SDS011;6686;51.292;4.166;2022-10-17T15:29:03;5.43;;;3.40;;
13238;SDS011;6686;51.292;4.166;2022-10-17T15:31:49;4.63;;;3.67;;
13238;SDS011;6686;51.292;4.166;2022-10-17T15:34:38;3.20;;;2.90;;
13238;SDS011;6686;51.292;4.166;2022-10-17T15:37:24;6.00;;;3.60;;
13238;SDS011;6686;51.292;4.166;2022-10-17T15:40:15;5.40;;;3.37;;
13238;SDS011;6686;51.292;4.166;2022-10-17T15:43:02;5.50;;;3.93;;
13238;SDS011;6686;51.292;4.166;2022-10-17T15:45:48;4.40;;;3.63;;
13238;SDS011;6686;51.292;4.166;2022-10-17T15:48:33;6.17;;;3.80;;
13238;SDS011;6686;51.292;4.166;2022-10-17T15:51:19;6.57;;;3.70;;
13238;SDS011;6686;51.292;4.166;2022-10-17T15:54:05;5.17;;;4.20;;
13238;SDS011;6686;51.292;4.166;2022-10-17T15:56:52;5.73;;;4.03;;
13238;SDS011;6686;51.292;4.166;2022-10-17T15:59:38;5.03;;;3.57;;
13238;SDS011;6686;51.292;4.166;2022-10-17T16:02:24;4.50;;;3.27;;
13238;SDS011;6686;51.292;4.166;2022-10-17T16:05:20;5.25;;;4.05;;
13238;SDS011;6686;51.292;4.166;2022-10-17T16:08:07;5.30;;;3.90;;
13238;SDS011;6686;51.292;4.166;2022-10-17T16:10:54;5.00;;;3.67;;
13238;SDS011;6686;51.292;4.166;2022-10-17T16:13:39;6.60;;;3.83;;
13238;SDS011;6686;51.292;4.166;2022-10-17T16:16:25;6.23;;;4.07;;
13238;SDS011;6686;51.292;4.166;2022-10-17T16:19:11;5.20;;;3.73;;
13238;SDS011;6686;51.292;4.166;2022-10-17T16:21:56;4.93;;;3.90;;
13238;SDS011;6686;51.292;4.166;2022-10-17T16:24:42;5.00;;;4.35;;
13238;SDS011;6686;51.292;4.166;2022-10-17T16:27:28;5.63;;;3.90;;
13238;SDS011;6686;51.292;4.166;2022-10-17T16:30:14;6.07;;;3.80;;
13238;SDS011;6686;51.292;4.166;2022-10-17T16:33:00;6.77;;;4.00;;
13238;SDS011;6686;51.292;4.166;2022-10-17T16:35:46;7.17;;;4.67;;
13238;SDS011;6686;51.292;4.166;2022-10-17T16:38:31;5.83;;;3.63;;
13238;SDS011;6686;51.292;4.166;2022-10-17T16:41:20;7.13;;;3.87;;
13238;SDS011;6686;51.292;4.166;2022-10-17T16:44:15;5.17;;;3.73;;
13238;SDS011;6686;51.292;4.166;2022-10-17T16:47:01;4.00;;;3.50;;
13238;SDS011;6686;51.292;4.166;2022-10-17T16:49:47;6.00;;;4.50;;
13238;SDS011;6686;51.292;4.166;2022-10-17T16:52:33;4.27;;;3.67;;
13238;SDS011;6686;51.292;4.166;2022-10-17T16:55:19;9.63;;;4.50;;
13238;SDS011;6686;51.292;4.166;2022-10-17T16:58:05;8.57;;;4.90;;
13238;SDS011;6686;51.292;4.166;2022-10-17T17:00:51;6.30;;;4.57;;
13238;SDS011;6686;51.292;4.166;2022-10-17T17:03:37;5.13;;;4.60;;
13238;SDS011;6686;51.292;4.166;2022-10-17T17:06:24;5.40;;;4.70;;
13238;SDS011;6686;51.292;4.166;2022-10-17T17:09:09;7.90;;;5.00;;
13238;SDS011;6686;51.292;4.166;2022-10-17T17:11:55;7.90;;;5.63;;
13238;SDS011;6686;51.292;4.166;2022-10-17T17:14:42;6.40;;;5.33;;
13238;SDS011;6686;51.292;4.166;2022-10-17T17:17:27;6.37;;;5.27;;
13238;SDS011;6686;51.292;4.166;2022-10-17T17:20:14;6.80;;;5.80;;
13238;SDS011;6686;51.292;4.166;2022-10-17T17:22:59;8.40;;;5.70;;
13238;SDS011;6686;51.292;4.166;2022-10-17T17:25:45;6.10;;;5.50;;
13238;SDS011;6686;51.292;4.166;2022-10-17T17:28:32;10.27;;;5.90;;
13238;SDS011;6686;51.292;4.166;2022-10-17T17:31:19;12.57;;;6.67;;
13238;SDS011;6686;51.292;4.166;2022-10-17T17:34:06;12.87;;;7.73;;
13238;SDS011;6686;51.292;4.166;2022-10-17T17:36:52;10.73;;;8.13;;
13238;SDS011;6686;51.292;4.166;2022-10-17T17:39:37;7.80;;;6.70;;
13238;SDS011;6686;51.292;4.166;2022-10-17T17:42:23;9.27;;;6.80;;
13238;SDS011;6686;51.292;4.166;2022-10-17T17:45:10;8.60;;;7.70;;
13238;SDS011;6686;51.292;4.166;2022-10-17T17:47:56;10.23;;;7.63;;
13238;SDS011;6686;51.292;4.166;2022-10-17T17:50:42;10.07;;;8.33;;
13238;SDS011;6686;51.292;4.166;2022-10-17T17:53:28;10.87;;;8.10;;
13238;SDS011;6686;51.292;4.166;2022-10-17T17:56:15;8.30;;;7.50;;
13238;SDS011;6686;51.292;4.166;2022-10-17T17:59:02;10.57;;;8.03;;
13238;SDS011;6686;51.292;4.166;2022-10-17T18:01:48;8.10;;;7.13;;
13238;SDS011;6686;51.292;4.166;2022-10-17T18:04:34;14.87;;;8.67;;
13238;SDS011;6686;51.292;4.166;2022-10-17T18:07:20;10.73;;;9.73;;
13238;SDS011;6686;51.292;4.166;2022-10-17T18:10:06;10.82;;;9.73;;
13238;SDS011;6686;51.292;4.166;2022-10-17T18:12:52;14.53;;;8.63;;
13238;SDS011;6686;51.292;4.166;2022-10-17T18:15:41;13.40;;;8.97;;
13238;SDS011;6686;51.292;4.166;2022-10-17T18:18:27;12.13;;;9.30;;
13238;SDS011;6686;51.292;4.166;2022-10-17T18:21:12;10.65;;;9.60;;
13238;SDS011;6686;51.292;4.166;2022-10-17T18:23:58;10.93;;;9.33;;
13238;SDS011;6686;51.292;4.166;2022-10-17T18:26:44;10.57;;;8.83;;
13238;SDS011;6686;51.292;4.166;2022-10-17T18:29:30;11.63;;;9.73;;
13238;SDS011;6686;51.292;4.166;2022-10-17T18:32:16;14.10;;;9.57;;
13238;SDS011;6686;51.292;4.166;2022-10-17T18:35:01;12.63;;;9.37;;
13238;SDS011;6686;51.292;4.166;2022-10-17T18:37:47;11.13;;;9.43;;